Time;durP1;ratioP1;P1;durP2;ratioP2;P2;SDS_P1;SDS_P2;PMS_P1;PMS_P2;Temp;Humidity;BMP_temperature;BMP_pressure;BME280_temperature;BME280_humidity;BME280_pressure;Samples;Min_cycle;Max_cycle;Signal;HPM_P1;HPM_P2
2023/12/19 00:05:09;;;;;;;6.03;4.18;;;;;;;17.83;61.60;101912.06;20823921;28;20068;-63
2023/12/19 00:15:11;;;;;;;5.18;3.60;;;;;;;17.79;61.72;101895.28;20859350;28;20136;-63
2023/12/19 00:25:13;;;;;;;3.58;3.17;;;;;;;17.78;61.66;101861.25;20827040;28;20045;-63
2023/12/19 00:35:15;;;;;;;4.72;3.25;;;;;;;17.75;61.61;101880.34;20860086;28;20045;-63
2023/12/19 00:45:16;;;;;;;4.10;2.95;;;;;;;17.73;61.81;101862.56;20826817;28;20647;-64
2023/12/19 00:55:18;;;;;;;3.95;3.03;;;;;;;17.68;61.61;101852.13;20808481;28;20496;-64
2023/12/19 01:05:20;;;;;;;2.88;2.58;;;;;;;17.65;61.69;101844.25;20813281;28;20052;-63
2023/12/19 01:15:23;;;;;;;3.72;2.95;;;;;;;17.45;61.75;101795.41;20811625;28;20335;-63
2023/12/19 01:25:25;;;;;;;3.80;2.40;;;;;;;17.61;61.71;101843.63;20837134;28;20060;-63
2023/12/19 01:35:27;;;;;;;3.65;2.75;;;;;;;17.61;61.62;101821.22;20827671;28;20073;-63
2023/12/19 01:45:29;;;;;;;3.05;2.53;;;;;;;17.57;61.40;101808.94;20812651;28;20052;-63
2023/12/19 01:55:31;;;;;;;2.30;2.10;;;;;;;17.57;61.46;101814.34;20811875;28;20052;-63
2023/12/19 02:05:37;;;;;;;2.33;1.98;;;;;;;17.54;61.42;101789.34;20827572;28;20087;-64
2023/12/19 02:15:38;;;;;;;2.00;1.45;;;;;;;17.51;61.48;101794.97;20855166;28;20159;-63
2023/12/19 02:25:41;;;;;;;1.90;1.70;;;;;;;17.49;61.51;101780.75;20854483;28;20165;-63
2023/12/19 02:35:42;;;;;;;1.58;1.30;;;;;;;17.50;61.52;101771.72;20866282;28;20049;-64
2023/12/19 02:45:44;;;;;;;1.42;1.30;;;;;;;17.53;61.33;101751.78;20845351;28;20049;-63
2023/12/19 02:55:46;;;;;;;1.80;1.45;;;;;;;17.54;61.33;101738.19;20820313;28;20057;-63
2023/12/19 03:05:48;;;;;;;1.40;1.30;;;;;;;17.57;61.18;101712.03;20816670;28;20587;-64
2023/12/19 03:15:49;;;;;;;1.60;1.40;;;;;;;17.51;61.46;101689.13;20849292;28;20080;-64
2023/12/19 03:25:51;;;;;;;1.40;1.30;;;;;;;17.49;61.31;101665.00;20855284;28;20045;-63
2023/12/19 03:35:53;;;;;;;1.33;1.23;;;;;;;17.49;61.54;101646.16;20837038;28;20126;-65
2023/12/19 03:46:00;;;;;;;1.42;1.23;;;;;;;17.50;61.46;101647.88;20837480;28;20056;-65
2023/12/19 03:56:03;;;;;;;1.33;1.23;;;;;;;17.53;61.41;101631.47;20818451;28;20083;-63
2023/12/19 04:06:05;;;;;;;1.20;1.10;;;;;;;17.57;61.33;101620.47;20844122;28;20076;-63
2023/12/19 04:16:08;;;;;;;1.40;1.13;;;;;;;17.46;61.26;101580.94;20839565;28;20049;-63
2023/12/19 04:26:19;;;;;;;1.48;1.02;;;;;;;17.60;61.45;101579.84;20862159;28;20053;-63
2023/12/19 04:36:21;;;;;;;1.20;1.10;;;;;;;17.61;61.23;101589.66;20846865;28;20123;-63
2023/12/19 04:46:23;;;;;;;0.90;0.80;;;;;;;17.51;61.06;101558.06;20850838;28;20045;-63
2023/12/19 04:56:24;;;;;;;1.17;1.08;;;;;;;17.79;60.82;101569.41;20842430;28;20049;-63
2023/12/19 05:06:26;;;;;;;1.20;1.10;;;;;;;17.86;60.70;101545.50;20837747;28;20087;-63
2023/12/19 05:16:28;;;;;;;0.80;0.80;;;;;;;17.92;60.47;101536.09;20833891;28;20055;-64
2023/12/19 05:26:30;;;;;;;1.17;1.08;;;;;;;17.95;60.22;101541.25;20841276;28;20410;-64
2023/12/19 05:36:34;;;;;;;0.80;0.80;;;;;;;17.98;60.26;101538.31;20837826;28;20138;-63
2023/12/19 05:46:41;;;;;;;0.70;0.70;;;;;;;18.04;60.37;101543.25;20818495;28;20142;-63
2023/12/19 05:56:43;;;;;;;2.30;0.73;;;;;;;18.04;60.17;101540.53;20844853;28;20048;-63
2023/12/19 06:06:44;;;;;;;0.63;0.60;;;;;;;18.05;60.76;101523.41;20866132;28;20040;-63
2023/12/19 06:16:46;;;;;;;0.60;0.60;;;;;;;18.03;61.81;101514.59;20813229;28;20144;-63
2023/12/19 06:26:48;;;;;;;0.60;0.60;;;;;;;18.03;62.64;101497.56;20822685;28;20065;-63
2023/12/19 06:36:50;;;;;;;0.40;0.40;;;;;;;18.07;62.96;101480.19;20821350;28;20088;-64
2023/12/19 06:46:51;;;;;;;0.85;0.70;;;;;;;18.16;63.02;101475.91;20815364;28;20137;-65
2023/12/19 06:56:53;;;;;;;0.40;0.40;;;;;;;18.27;62.81;101454.31;20809581;28;20127;-63
2023/12/19 07:06:55;;;;;;;0.85;0.50;;;;;;;18.27;62.55;101451.63;20814516;28;20049;-63
2023/12/19 07:16:57;;;;;;;0.57;0.57;;;;;;;18.27;62.09;101430.06;20792492;28;20056;-63
2023/12/19 07:26:59;;;;;;;0.40;0.40;;;;;;;18.24;61.97;101414.97;20836138;28;20052;-63
2023/12/19 07:37:02;;;;;;;0.30;0.30;;;;;;;18.24;61.67;101414.97;20844566;28;20053;-64
2023/12/19 07:47:04;;;;;;;0.45;0.40;;;;;;;18.22;61.40;101399.94;20851237;28;20144;-64
2023/12/19 07:57:06;;;;;;;0.30;0.30;;;;;;;18.22;61.33;101395.38;20857311;28;20053;-63
2023/12/19 08:07:07;;;;;;;1.45;0.57;;;;;;;18.14;61.27;101391.63;20833915;28;20049;-64
2023/12/19 08:17:10;;;;;;;0.30;0.30;;;;;;;18.12;61.07;101389.06;20829224;28;20068;-63
2023/12/19 08:27:12;;;;;;;0.30;0.30;;;;;;;18.10;61.02;101399.94;20813119;28;20140;-63
2023/12/19 08:37:14;;;;;;;0.30;0.30;;;;;;;18.10;61.04;101394.56;20815620;28;20132;-63
2023/12/19 08:47:16;;;;;;;1.00;0.88;;;;;;;18.05;61.73;101393.22;20815356;28;20131;-67
2023/12/19 08:57:17;;;;;;;0.30;0.30;;;;;;;18.21;61.76;101382.06;20850598;28;20689;-71
2023/12/19 09:07:21;;;;;;;1.20;0.30;;;;;;;18.39;61.27;101369.75;20828100;28;20535;-68
2023/12/19 09:17:23;;;;;;;0.88;0.57;;;;;;;18.74;61.02;101383.91;20809327;28;20060;-69
2023/12/19 09:27:25;;;;;;;0.20;0.20;;;;;;;18.94;60.63;101379.53;20811596;28;20183;-70
2023/12/19 09:37:28;;;;;;;0.30;0.30;;;;;;;19.02;60.28;101353.78;20813862;28;20053;-70
2023/12/19 09:47:30;;;;;;;0.30;0.30;;;;;;;19.25;60.26;101371.50;20822988;28;20402;-68
2023/12/19 09:57:35;;;;;;;1.40;0.30;;;;;;;19.37;60.38;101360.63;20820900;28;20057;-70
2023/12/19 10:07:38;;;;;;;1.17;0.32;;;;;;;19.43;60.57;101324.97;20826224;28;20052;-69
2023/12/19 10:17:40;;;;;;;0.20;0.20;;;;;;;19.50;60.19;101309.97;20823948;28;20561;-69
2023/12/19 10:27:42;;;;;;;0.15;0.15;;;;;;;19.54;60.13;101300.59;20811403;28;20048;-69
2023/12/19 10:37:45;;;;;;;0.25;0.25;;;;;;;19.56;60.50;101290.50;20826436;28;20452;-69
2023/12/19 10:47:48;;;;;;;0.53;0.53;;;;;;;19.59;60.52;101280.41;20802694;28;20057;-70
2023/12/19 10:57:50;;;;;;;0.57;0.40;;;;;;;19.62;60.65;101266.63;20843326;28;20057;-68
2023/12/19 11:07:57;;;;;;;0.95;0.50;;;;;;;19.54;60.67;101216.00;20828447;28;20061;-67
2023/12/19 11:18:04;;;;;;;0.30;0.30;;;;;;;19.55;60.54;101220.41;20822067;28;20048;-67
2023/12/19 11:28:06;;;;;;;0.80;0.43;;;;;;;19.51;60.41;101198.25;20812214;28;20408;-67
2023/12/19 11:38:25;;;;;;;0.50;0.50;;;;;;;19.45;60.28;101201.53;20821804;28;20052;-68
2023/12/19 11:48:40;;;;;;;0.40;0.38;;;;;;;19.45;60.59;101193.41;20835484;28;20521;-68
2023/12/19 11:58:46;;;;;;;0.40;0.40;;;;;;;19.47;60.61;101175.22;20818810;28;20055;-68
2023/12/19 12:08:53;;;;;;;0.50;0.43;;;;;;;19.50;60.62;101149.78;20823255;28;20444;-69
2023/12/19 12:19:11;;;;;;;0.50;0.50;;;;;;;19.54;61.13;101143.97;20821344;28;20060;-68
2023/12/19 12:29:12;;;;;;;0.45;0.45;;;;;;;19.59;60.93;101129.19;20832924;28;20414;-68
2023/12/19 12:39:20;;;;;;;0.43;0.40;;;;;;;19.62;61.20;101126.19;20824999;28;20053;-68
2023/12/19 12:49:22;;;;;;;0.40;0.40;;;;;;;19.66;61.09;101117.66;20824902;28;20435;-67
2023/12/19 12:59:28;;;;;;;0.47;0.47;;;;;;;19.70;61.29;101089.38;20828684;28;20053;-67
2023/12/19 13:09:30;;;;;;;0.50;0.40;;;;;;;19.76;61.27;101089.81;20822169;28;20385;-67
2023/12/19 13:19:32;;;;;;;0.47;0.47;;;;;;;19.78;61.14;101088.66;20822938;28;20049;-67
2023/12/19 13:29:34;;;;;;;0.30;0.20;;;;;;;19.80;61.46;101094.75;20798470;28;20506;-67
2023/12/19 13:39:36;;;;;;;0.50;0.40;;;;;;;19.83;61.36;101091.75;20811419;28;20866;-69
2023/12/19 13:49:38;;;;;;;0.30;0.28;;;;;;;19.83;61.54;101104.44;20817091;28;20048;-68
2023/12/19 13:59:41;;;;;;;0.20;0.20;;;;;;;19.83;61.89;101099.88;20814665;28;20065;-68
2023/12/19 14:09:43;;;;;;;0.22;0.20;;;;;;;19.80;62.17;101088.50;20817656;28;20619;-66
2023/12/19 14:19:45;;;;;;;0.30;0.30;;;;;;;19.85;62.18;101078.97;20821609;28;20526;-67
2023/12/19 14:29:47;;;;;;;0.30;0.30;;;;;;;19.88;62.25;101063.44;20832945;28;20071;-67
2023/12/19 14:39:50;;;;;;;0.38;0.35;;;;;;;19.86;62.17;101042.00;20826368;28;20103;-66
2023/12/19 14:49:52;;;;;;;0.20;0.20;;;;;;;19.82;62.73;101038.72;20824836;28;20041;-67
2023/12/19 14:59:55;;;;;;;0.82;0.50;;;;;;;19.78;62.93;101040.03;20826325;28;20045;-67
2023/12/19 15:09:56;;;;;;;0.63;0.47;;;;;;;19.75;62.89;101021.41;20818947;28;20116;-69
2023/12/19 15:19:58;;;;;;;0.20;0.20;;;;;;;19.76;63.02;101028.50;20778798;28;20222;-67
2023/12/19 15:30:00;;;;;;;1.00;0.60;;;;;;;19.62;68.75;101023.56;20835983;28;20053;-67
2023/12/19 15:40:03;;;;;;;1.63;0.50;;;;;;;19.63;75.03;101022.56;20809943;28;20095;-68
2023/12/19 15:50:05;;;;;;;1.17;0.47;;;;;;;19.72;82.36;101027.09;20808797;28;20084;-68
2023/12/19 16:00:08;;;;;;;2.15;1.83;;;;;;;19.71;80.61;101015.47;20791775;28;20060;-68
2023/12/19 16:10:13;;;;;;;1.23;0.30;;;;;;;19.77;76.78;101011.31;20788700;28;20142;-69
2023/12/19 16:20:15;;;;;;;0.30;0.30;;;;;;;19.84;74.54;101007.00;20794650;28;20327;-70
2023/12/19 16:30:17;;;;;;;0.40;0.40;;;;;;;20.00;72.52;101017.25;20795543;28;20057;-69
2023/12/19 16:40:19;;;;;;;1.27;0.20;;;;;;;19.99;72.21;100999.31;20792434;28;20436;-68
2023/12/19 16:50:28;;;;;;;0.50;0.30;;;;;;;19.89;71.26;100994.94;20801524;28;20048;-68
2023/12/19 17:00:31;;;;;;;1.50;0.40;;;;;;;19.69;70.41;100978.78;20835230;28;20405;-68
2023/12/19 17:10:32;;;;;;;1.40;0.43;;;;;;;19.51;70.85;100986.78;20827737;28;20052;-72
2023/12/19 17:20:34;;;;;;;0.70;0.30;;;;;;;19.42;70.86;100993.88;20847675;28;20102;-72
2023/12/19 17:30:36;;;;;;;0.80;0.30;;;;;;;19.30;70.83;100984.25;20849164;28;20052;-71
2023/12/19 17:40:38;;;;;;;1.20;0.40;;;;;;;19.12;70.52;100982.28;20786802;28;20103;-71
2023/12/19 17:50:40;;;;;;;0.57;0.30;;;;;;;19.07;70.56;100989.94;20858297;28;20847;-71
2023/12/19 18:00:42;;;;;;;1.98;0.57;;;;;;;19.02;70.21;100994.94;20843719;28;20122;-70
2023/12/19 18:10:44;;;;;;;1.23;0.40;;;;;;;18.79;69.67;100998.72;20833864;28;20558;-70
2023/12/19 18:20:47;;;;;;;1.85;0.52;;;;;;;18.72;69.62;101018.28;20818762;28;20052;-70
2023/12/19 18:30:49;;;;;;;0.50;0.35;;;;;;;18.78;68.88;101017.72;20820444;28;20049;-70
2023/12/19 18:40:51;;;;;;;0.50;0.30;;;;;;;18.79;68.59;100993.31;20838378;28;20049;-70
2023/12/19 18:50:53;;;;;;;0.88;0.20;;;;;;;18.76;67.98;100996.25;20850666;28;20053;-70
2023/12/19 19:00:56;;;;;;;0.38;0.32;;;;;;;18.71;67.48;101022.78;20819319;28;20432;-70
2023/12/19 19:10:58;;;;;;;1.23;0.60;;;;;;;18.66;67.31;101031.31;20844689;28;20084;-70
2023/12/19 19:21:00;;;;;;;0.88;0.50;;;;;;;18.62;66.94;101029.91;20827477;28;20052;-70
2023/12/19 19:31:01;;;;;;;1.48;0.50;;;;;;;18.59;66.78;101034.69;20827629;28;20850;-69
2023/12/19 19:41:04;;;;;;;0.50;0.30;;;;;;;18.55;66.35;101045.75;20838363;28;20041;-70
2023/12/19 19:51:08;;;;;;;1.20;0.52;;;;;;;18.37;66.06;101032.06;20861336;28;20052;-69
2023/12/19 20:01:10;;;;;;;2.87;0.57;;;;;;;18.25;66.14;101054.72;20830727;28;20060;-70
2023/12/19 20:11:12;;;;;;;1.02;0.40;;;;;;;18.20;66.00;101035.41;20828378;28;20413;-70
2023/12/19 20:21:17;;;;;;;1.25;0.30;;;;;;;18.22;65.41;101039.66;20842997;28;20053;-70
2023/12/19 20:31:19;;;;;;;0.80;0.32;;;;;;;18.26;65.25;101048.34;20828926;28;20482;-70
2023/12/19 20:41:24;;;;;;;1.90;0.60;;;;;;;18.12;64.56;101022.63;20810819;28;20513;-70
2023/12/19 20:51:26;;;;;;;1.17;0.50;;;;;;;18.21;64.29;101031.75;20834435;28;20055;-70
2023/12/19 21:01:27;;;;;;;1.30;0.40;;;;;;;18.17;64.04;101035.69;20817509;28;20160;-70
2023/12/19 21:11:30;;;;;;;0.75;0.50;;;;;;;18.13;63.77;101028.88;20818632;28;20049;-70
2023/12/19 21:21:32;;;;;;;1.00;0.40;;;;;;;18.06;63.63;101025.84;20859184;28;20468;-70
2023/12/19 21:31:35;;;;;;;2.08;0.50;;;;;;;18.00;63.37;101012.88;20835606;28;20524;-70
2023/12/19 21:41:39;;;;;;;0.93;0.40;;;;;;;17.95;63.22;101027.63;20849201;28;20069;-70
2023/12/19 21:51:41;;;;;;;1.08;0.60;;;;;;;17.90;63.12;101018.22;20822579;28;20041;-70
2023/12/19 22:01:44;;;;;;;0.88;0.40;;;;;;;17.86;63.00;101016.78;20848976;28;20119;-70
2023/12/19 22:11:46;;;;;;;1.17;0.38;;;;;;;17.81;62.69;101006.41;20833583;28;20057;-70
2023/12/19 22:21:48;;;;;;;1.63;0.55;;;;;;;17.76;62.58;101006.81;20813454;28;20390;-70
2023/12/19 22:31:50;;;;;;;1.02;0.50;;;;;;;17.70;62.52;101012.72;20854262;28;20143;-70
2023/12/19 22:41:52;;;;;;;1.42;0.50;;;;;;;17.67;62.30;101002.19;20845210;28;20174;-70
2023/12/19 22:51:54;;;;;;;1.60;0.60;;;;;;;17.63;61.78;100987.28;20852504;28;20045;-70
2023/12/19 23:01:56;;;;;;;1.48;0.40;;;;;;;17.61;61.62;100978.50;20854392;28;20052;-70
2023/12/19 23:11:58;;;;;;;1.20;0.40;;;;;;;17.57;61.39;100961.78;20863075;28;20100;-70
2023/12/19 23:22:00;;;;;;;2.28;0.50;;;;;;;17.44;61.25;100956.59;20860857;28;20053;-70
2023/12/19 23:32:02;;;;;;;0.73;0.30;;;;;;;17.49;61.06;100961.59;20864654;28;20451;-70
2023/12/19 23:42:04;;;;;;;2.15;0.45;;;;;;;17.38;61.10;100959.81;20841914;28;20131;-70
2023/12/19 23:52:06;;;;;;;1.98;0.80;;;;;;;17.33;61.17;100959.38;20858872;28;20095;-70
